Time;durP1;ratioP1;P1;durP2;ratioP2;P2;SDS_P1;SDS_P2;PMS_P1;PMS_P2;Temp;Humidity;BMP_temperature;BMP_pressure;BME280_temperature;BME280_humidity;BME280_pressure;Samples;Min_cycle;Max_cycle;Signal;HPM_P1;HPM_P2
2022/11/20 00:02:33;;;;;;;26.17;18.53;;;3.60;99.90;;;;;;10424457;28;20240;-78
2022/11/20 00:07:34;;;;;;;23.43;16.80;;;3.60;99.90;;;;;;10433153;28;20734;-79
2022/11/20 00:12:35;;;;;;;25.93;19.43;;;3.70;99.90;;;;;;10431628;28;20231;-79
2022/11/20 00:17:35;;;;;;;25.60;19.57;;;3.70;99.90;;;;;;10431660;28;20224;-79
2022/11/20 00:22:36;;;;;;;23.80;18.20;;;3.70;99.90;;;;;;10435171;28;20643;-79
2022/11/20 00:27:37;;;;;;;24.93;18.03;;;3.70;99.90;;;;;;10440170;28;20731;-77
2022/11/20 00:32:37;;;;;;;23.70;17.60;;;3.70;99.90;;;;;;10448824;28;20263;-79
2022/11/20 00:37:38;;;;;;;21.77;16.00;;;3.70;99.90;;;;;;10430192;28;20774;-81
2022/11/20 00:42:38;;;;;;;23.47;17.70;;;3.80;99.90;;;;;;10438089;28;20227;-75
2022/11/20 00:47:39;;;;;;;24.30;17.37;;;3.90;99.90;;;;;;10437371;28;20754;-79
2022/11/20 00:52:40;;;;;;;21.40;16.53;;;4.00;99.90;;;;;;10443381;28;20714;-75
2022/11/20 00:57:40;;;;;;;20.77;15.90;;;4.10;99.90;;;;;;10428963;28;20228;-75
2022/11/20 01:02:42;;;;;;;23.33;16.73;;;4.20;99.90;;;;;;10434660;28;20255;-77
2022/11/20 01:07:42;;;;;;;22.13;17.37;;;4.20;99.90;;;;;;10438235;28;20254;-79
2022/11/20 01:12:43;;;;;;;23.73;17.23;;;4.20;99.90;;;;;;10440305;28;20277;-77
2022/11/20 01:17:43;;;;;;;20.43;16.27;;;4.20;99.90;;;;;;10435726;28;20228;-78
2022/11/20 01:22:44;;;;;;;24.23;18.00;;;4.20;99.90;;;;;;10446585;28;20246;-79
2022/11/20 01:27:44;;;;;;;26.87;18.90;;;4.20;99.90;;;;;;10439261;28;20219;-79
2022/11/20 01:32:45;;;;;;;25.10;18.83;;;4.20;99.90;;;;;;10422464;28;20680;-77
2022/11/20 01:37:46;;;;;;;20.40;16.27;;;4.20;99.90;;;;;;10422243;28;20259;-78
2022/11/20 01:48:23;;;;;;;21.20;16.60;;;4.30;99.90;;;;;;10427221;28;20221;-78
2022/11/20 01:53:29;;;;;;;22.07;16.77;;;4.30;99.90;;;;;;10472527;28;20385;-78
2022/11/20 01:58:34;;;;;;;20.07;16.33;;;4.40;99.90;;;;;;10426917;28;20853;-79
2022/11/20 02:03:36;;;;;;;21.97;16.97;;;4.40;99.90;;;;;;10425700;28;20251;-78
2022/11/20 02:08:38;;;;;;;21.33;16.83;;;4.40;99.90;;;;;;10432834;28;20226;-78
2022/11/20 02:13:45;;;;;;;22.40;17.13;;;4.30;99.90;;;;;;10433553;28;20215;-79
2022/11/20 02:18:46;;;;;;;23.13;17.53;;;4.30;99.90;;;;;;10431201;28;20238;-79
2022/11/20 02:24:05;;;;;;;24.50;17.37;;;4.30;99.90;;;;;;10427109;28;20250;-79
2022/11/20 02:29:06;;;;;;;25.57;19.00;;;4.30;99.90;;;;;;10431897;28;20215;-78
2022/11/20 02:34:06;;;;;;;21.97;18.00;;;4.30;99.90;;;;;;10424813;28;20695;-75
2022/11/20 02:39:08;;;;;;;21.90;17.23;;;4.30;99.90;;;;;;10426076;28;20220;-76
2022/11/20 02:44:08;;;;;;;27.13;18.27;;;4.40;99.90;;;;;;10429886;28;20287;-76
2022/11/20 02:49:09;;;;;;;25.00;18.00;;;4.40;99.90;;;;;;10446892;28;20311;-78
2022/11/20 02:54:10;;;;;;;22.50;17.70;;;4.50;99.90;;;;;;10432000;28;20250;-78
2022/11/20 02:59:10;;;;;;;22.87;17.30;;;4.40;99.90;;;;;;10423413;28;20267;-76
2022/11/20 03:04:11;;;;;;;23.80;17.70;;;4.40;99.90;;;;;;10429652;28;20222;-76
2022/11/20 03:09:12;;;;;;;27.73;19.03;;;4.30;99.90;;;;;;10421920;28;20278;-76
2022/11/20 03:14:13;;;;;;;26.50;19.40;;;4.30;99.90;;;;;;10437537;28;20310;-74
2022/11/20 03:19:13;;;;;;;24.77;18.33;;;4.20;99.90;;;;;;10436510;28;20239;-74
2022/11/20 03:24:14;;;;;;;27.97;19.90;;;4.20;99.90;;;;;;10416079;28;20221;-73
2022/11/20 03:29:15;;;;;;;25.83;18.77;;;4.20;99.90;;;;;;10422529;28;20220;-74
2022/11/20 03:34:15;;;;;;;25.87;18.37;;;4.20;99.90;;;;;;10428429;28;20354;-74
2022/11/20 03:39:16;;;;;;;25.93;19.10;;;4.20;99.90;;;;;;10414649;28;20220;-74
2022/11/20 03:44:16;;;;;;;26.90;18.53;;;4.20;99.90;;;;;;10431083;28;20256;-74
2022/11/20 03:49:18;;;;;;;26.63;19.07;;;4.20;99.90;;;;;;10433791;28;20694;-77
2022/11/20 03:54:18;;;;;;;28.87;19.60;;;4.30;99.90;;;;;;10435707;28;20227;-78
2022/11/20 03:59:22;;;;;;;29.03;19.63;;;4.20;99.90;;;;;;10445411;28;20224;-77
2022/11/20 04:04:22;;;;;;;26.67;18.73;;;4.20;99.90;;;;;;10427091;28;20217;-78
2022/11/20 04:09:23;;;;;;;27.30;19.83;;;4.30;99.90;;;;;;10433833;28;20643;-77
2022/11/20 04:14:23;;;;;;;27.70;18.50;;;4.30;99.90;;;;;;10423944;28;20235;-77
2022/11/20 04:19:24;;;;;;;24.83;18.27;;;4.30;99.90;;;;;;10428079;28;20230;-80
2022/11/20 04:24:25;;;;;;;27.83;19.67;;;4.30;99.90;;;;;;10422031;28;20221;-78
2022/11/20 04:29:26;;;;;;;26.03;19.17;;;4.30;99.90;;;;;;10431563;28;20220;-77
2022/11/20 04:34:26;;;;;;;25.70;18.37;;;4.30;99.90;;;;;;10421123;28;20319;-75
2022/11/20 04:39:27;;;;;;;28.10;19.30;;;4.40;99.90;;;;;;10431767;28;20231;-77
2022/11/20 04:44:28;;;;;;;26.37;18.83;;;4.40;99.90;;;;;;10438029;28;20261;-76
2022/11/20 04:49:28;;;;;;;26.77;18.50;;;4.40;99.90;;;;;;10441276;28;20247;-77
2022/11/20 04:54:32;;;;;;;25.73;17.87;;;4.40;99.90;;;;;;10437708;28;20228;-74
2022/11/20 04:59:32;;;;;;;25.47;18.03;;;4.30;99.90;;;;;;10421144;28;20227;-74
2022/11/20 05:04:33;;;;;;;27.47;19.57;;;4.30;99.90;;;;;;10423863;28;20630;-73
2022/11/20 05:09:34;;;;;;;24.63;17.97;;;4.40;99.90;;;;;;10444008;28;20216;-75
2022/11/20 05:14:34;;;;;;;27.83;19.47;;;4.40;99.90;;;;;;10446042;28;20224;-74
2022/11/20 05:19:35;;;;;;;27.93;19.03;;;4.30;99.90;;;;;;10426235;28;20239;-74
2022/11/20 05:24:35;;;;;;;28.17;19.80;;;4.30;99.90;;;;;;10423948;28;20228;-74
2022/11/20 05:29:36;;;;;;;28.13;19.87;;;4.40;99.90;;;;;;10429407;28;20684;-74
2022/11/20 05:34:37;;;;;;;27.33;18.70;;;4.30;99.90;;;;;;10421851;28;20224;-73
2022/11/20 05:39:37;;;;;;;26.67;18.87;;;4.30;99.90;;;;;;10425165;28;20266;-71
2022/11/20 05:44:38;;;;;;;28.60;20.17;;;4.40;99.90;;;;;;10414653;28;20242;-76
2022/11/20 05:49:39;;;;;;;27.73;19.33;;;4.40;99.90;;;;;;10423908;28;20225;-75
2022/11/20 05:54:39;;;;;;;32.33;21.47;;;4.40;99.90;;;;;;10436333;28;20224;-75
2022/11/20 05:59:40;;;;;;;31.00;20.67;;;4.40;99.90;;;;;;10427312;28;20239;-74
2022/11/20 06:04:41;;;;;;;28.47;19.60;;;4.40;99.90;;;;;;10423944;28;20451;-75
2022/11/20 06:09:44;;;;;;;23.87;17.53;;;4.40;99.90;;;;;;10427621;28;21008;-76
2022/11/20 06:14:45;;;;;;;26.63;19.23;;;4.40;99.90;;;;;;10418307;28;20383;-75
2022/11/20 06:19:45;;;;;;;22.67;16.17;;;4.30;99.90;;;;;;10430967;28;20235;-76
2022/11/20 06:24:47;;;;;;;25.03;17.90;;;4.30;99.90;;;;;;10426967;28;20594;-75
2022/11/20 06:29:50;;;;;;;21.47;15.83;;;4.30;99.90;;;;;;10431225;28;20270;-76
2022/11/20 06:34:50;;;;;;;23.90;17.43;;;4.30;99.90;;;;;;10425598;28;20592;-71
2022/11/20 06:39:51;;;;;;;22.90;16.80;;;4.20;99.90;;;;;;10432259;28;20242;-73
2022/11/20 06:44:51;;;;;;;24.10;17.70;;;4.20;99.90;;;;;;10422229;28;20242;-72
2022/11/20 06:49:52;;;;;;;24.03;16.73;;;4.20;99.90;;;;;;10431322;28;20369;-72
2022/11/20 06:54:53;;;;;;;21.80;16.03;;;4.20;99.90;;;;;;10421930;28;20262;-71
2022/11/20 06:59:54;;;;;;;22.80;16.87;;;4.30;99.90;;;;;;10424653;28;20226;-76
2022/11/20 07:04:54;;;;;;;21.97;16.03;;;4.30;99.90;;;;;;10440829;28;20220;-72
2022/11/20 07:09:57;;;;;;;23.57;15.87;;;4.30;99.90;;;;;;10426002;28;20595;-72
2022/11/20 07:15:01;;;;;;;22.80;16.47;;;4.40;99.90;;;;;;10421769;28;20258;-71
2022/11/20 07:20:02;;;;;;;24.37;17.67;;;4.50;99.90;;;;;;10435375;28;20219;-76
2022/11/20 07:25:03;;;;;;;25.07;18.23;;;4.60;99.90;;;;;;10428689;28;20220;-76
2022/11/20 07:30:04;;;;;;;21.77;16.27;;;4.50;99.90;;;;;;10433349;28;20219;-73
2022/11/20 07:35:06;;;;;;;23.37;16.77;;;4.50;99.90;;;;;;10427579;28;20311;-75
2022/11/20 07:40:06;;;;;;;27.43;18.03;;;4.50;99.90;;;;;;10419697;28;20212;-74
2022/11/20 07:45:07;;;;;;;22.07;15.63;;;4.50;99.90;;;;;;10437215;28;20187;-72
2022/11/20 07:50:08;;;;;;;21.77;16.53;;;4.60;99.90;;;;;;10428317;28;20203;-74
2022/11/20 07:55:10;;;;;;;22.77;16.17;;;4.60;99.90;;;;;;10443309;28;20199;-74
2022/11/20 08:00:12;;;;;;;20.87;15.53;;;4.60;99.90;;;;;;10427700;28;20305;-71
2022/11/20 08:05:13;;;;;;;20.33;15.20;;;4.60;99.90;;;;;;10426092;28;20185;-72
2022/11/20 08:10:16;;;;;;;20.77;15.60;;;4.60;99.90;;;;;;10438874;28;20597;-73
2022/11/20 08:15:16;;;;;;;23.97;16.53;;;4.70;99.90;;;;;;10433238;28;20196;-72
2022/11/20 08:20:17;;;;;;;20.93;14.77;;;4.80;99.90;;;;;;10437867;28;20196;-72
2022/11/20 08:25:17;;;;;;;20.33;14.90;;;4.90;99.90;;;;;;10432254;28;20271;-71
2022/11/20 08:30:18;;;;;;;19.70;15.60;;;5.10;99.90;;;;;;10442812;28;20297;-73
2022/11/20 08:35:20;;;;;;;17.60;13.57;;;5.30;99.90;;;;;;10441355;28;20271;-69
2022/11/20 08:40:20;;;;;;;16.80;13.57;;;5.60;99.90;;;;;;10430363;28;20220;-69
2022/11/20 08:45:21;;;;;;;19.13;14.63;;;6.00;99.90;;;;;;10433699;28;20172;-70
2022/11/20 08:50:21;;;;;;;15.33;12.40;;;6.60;99.90;;;;;;10426571;28;20199;-71
2022/11/20 08:55:22;;;;;;;16.43;13.47;;;9.80;99.90;;;;;;10425933;28;20193;-70
2022/11/20 09:00:23;;;;;;;13.63;11.77;;;13.80;99.90;;;;;;10432509;28;20224;-74
2022/11/20 09:05:24;;;;;;;14.03;11.90;;;14.40;99.90;;;;;;10435031;28;20287;-72
2022/11/20 09:10:28;;;;;;;12.80;10.83;;;14.20;99.90;;;;;;10437510;28;20225;-72
2022/11/20 09:15:30;;;;;;;14.30;12.23;;;12.90;99.90;;;;;;10445247;28;20220;-73
2022/11/20 09:20:31;;;;;;;13.47;11.80;;;10.90;99.90;;;;;;10432149;28;20233;-72
2022/11/20 09:25:32;;;;;;;15.20;12.53;;;9.50;99.90;;;;;;10443291;28;20222;-71
2022/11/20 09:30:33;;;;;;;14.73;13.10;;;8.40;99.90;;;;;;10442490;28;20233;-72
2022/11/20 09:35:34;;;;;;;14.97;12.03;;;7.80;99.90;;;;;;10441455;28;20308;-73
2022/11/20 09:40:39;;;;;;;15.53;13.10;;;7.50;99.90;;;;;;10443670;28;20242;-74
2022/11/20 09:46:04;;;;;;;16.77;13.17;;;7.30;99.90;;;;;;10445284;28;20213;-74
2022/11/20 09:51:27;;;;;;;18.33;12.90;;;7.10;99.90;;;;;;10439584;28;20220;-72
2022/11/20 09:56:28;;;;;;;17.43;13.80;;;6.90;99.90;;;;;;10442684;28;20235;-72
2022/11/20 10:01:36;;;;;;;17.90;14.30;;;6.70;99.90;;;;;;10446721;28;20227;-72
2022/11/20 10:07:11;;;;;;;17.90;14.10;;;6.60;99.90;;;;;;10443129;28;20277;-72
2022/11/20 10:12:49;;;;;;;18.67;15.10;;;6.50;99.90;;;;;;10442500;28;20227;-75
2022/11/20 10:18:22;;;;;;;21.27;15.03;;;6.40;99.90;;;;;;10438804;28;20223;-76
2022/11/20 10:23:48;;;;;;;19.23;15.10;;;6.40;99.90;;;;;;10444033;28;20326;-74
2022/11/20 10:29:18;;;;;;;20.97;15.77;;;6.60;99.90;;;;;;10445056;28;20277;-74
2022/11/20 10:34:31;;;;;;;18.57;14.47;;;6.70;99.90;;;;;;10476539;28;20262;-77
2022/11/20 10:39:54;;;;;;;18.23;14.63;;;6.70;99.90;;;;;;10464887;28;20221;-75
2022/11/20 10:45:09;;;;;;;22.27;15.80;;;6.70;99.90;;;;;;10444357;28;20212;-77
2022/11/20 10:50:14;;;;;;;17.27;14.10;;;6.70;99.90;;;;;;10444032;28;20278;-77
2022/11/20 10:55:24;;;;;;;18.87;15.03;;;6.60;99.90;;;;;;10441914;28;20199;-78
2022/11/20 11:00:26;;;;;;;18.17;14.37;;;6.50;99.90;;;;;;10452587;28;20255;-75
2022/11/20 11:05:53;;;;;;;19.23;14.43;;;6.40;99.90;;;;;;10451388;28;20231;-75
2022/11/20 11:10:56;;;;;;;19.47;14.13;;;6.30;99.90;;;;;;10451197;28;20306;-75
2022/11/20 11:15:57;;;;;;;18.13;14.13;;;6.30;99.90;;;;;;10451949;28;20223;-76
2022/11/20 11:21:00;;;;;;;17.43;14.50;;;6.40;99.90;;;;;;10450718;28;20224;-75
2022/11/20 11:26:03;;;;;;;17.73;13.83;;;6.50;99.90;;;;;;10450416;28;20220;-74
2022/11/20 11:31:04;;;;;;;16.67;13.80;;;6.70;99.90;;;;;;10451744;28;20218;-76
2022/11/20 11:36:20;;;;;;;17.83;13.47;;;6.90;99.90;;;;;;10450642;28;20789;-77
2022/11/20 11:41:26;;;;;;;16.57;12.33;;;7.00;99.90;;;;;;10450496;28;20347;-77
2022/11/20 11:46:33;;;;;;;17.37;12.07;;;7.10;99.90;;;;;;10484124;28;20243;-76
2022/11/20 11:52:09;;;;;;;15.30;13.00;;;7.10;99.90;;;;;;10448633;28;20215;-77
2022/11/20 11:57:18;;;;;;;15.20;12.13;;;7.00;99.90;;;;;;10450405;28;20318;-76
2022/11/20 12:02:35;;;;;;;15.00;12.13;;;7.00;99.90;;;;;;10446702;28;20221;-78
2022/11/20 12:07:42;;;;;;;15.40;11.73;;;7.00;99.90;;;;;;10447842;28;20585;-78
2022/11/20 12:12:48;;;;;;;14.77;12.00;;;7.20;99.90;;;;;;10449416;28;20227;-73
2022/11/20 12:17:48;;;;;;;12.70;11.30;;;7.40;99.90;;;;;;10448012;28;20223;-75
2022/11/20 12:23:07;;;;;;;14.33;11.63;;;7.40;99.90;;;;;;10447361;28;20228;-76
2022/11/20 12:28:46;;;;;;;17.30;13.07;;;7.50;99.90;;;;;;10447209;28;20252;-76
2022/11/20 12:34:17;;;;;;;15.33;12.40;;;7.50;99.90;;;;;;10428088;28;20227;-75
2022/11/20 12:39:30;;;;;;;16.90;12.77;;;7.40;99.90;;;;;;10441872;28;20220;-75
2022/11/20 12:45:11;;;;;;;14.60;11.73;;;7.40;99.90;;;;;;10445767;28;20258;-77
2022/11/20 12:50:44;;;;;;;16.17;11.53;;;7.40;99.90;;;;;;10444814;28;20216;-77
2022/11/20 12:56:27;;;;;;;17.80;12.40;;;7.30;99.90;;;;;;10415676;28;20695;-76
2022/11/20 13:01:40;;;;;;;16.93;12.73;;;7.20;99.90;;;;;;10446490;28;20227;-79
2022/11/20 13:06:41;;;;;;;17.17;12.50;;;7.20;99.90;;;;;;10446408;28;20224;-78
2022/11/20 13:12:06;;;;;;;18.87;14.13;;;7.10;99.90;;;;;;10446453;28;20223;-77
2022/11/20 13:17:42;;;;;;;18.33;13.90;;;7.10;99.90;;;;;;10448013;28;20690;-77
2022/11/20 13:22:45;;;;;;;18.63;13.43;;;7.20;99.90;;;;;;10432843;28;20236;-73
2022/11/20 13:27:53;;;;;;;18.67;14.17;;;7.30;99.90;;;;;;10444613;28;20210;-75
2022/11/20 13:33:00;;;;;;;20.47;14.43;;;7.50;99.90;;;;;;10443366;28;20221;-75
2022/11/20 13:38:09;;;;;;;17.57;14.00;;;7.70;99.90;;;;;;10446264;28;20220;-74
2022/11/20 13:43:26;;;;;;;17.60;13.73;;;7.90;99.90;;;;;;10445029;28;20227;-74
2022/11/20 13:48:31;;;;;;;18.23;13.13;;;7.90;99.90;;;;;;10477590;28;20594;-77
2022/11/20 13:54:02;;;;;;;16.47;12.90;;;7.90;99.90;;;;;;10444302;28;20220;-76
2022/11/20 13:59:38;;;;;;;17.10;12.90;;;7.90;99.90;;;;;;10445288;28;20310;-78
2022/11/20 14:04:49;;;;;;;17.63;13.70;;;7.80;99.90;;;;;;10442950;28;20239;-81
2022/11/20 14:09:53;;;;;;;17.80;13.03;;;7.70;99.90;;;;;;10446143;28;20699;-81
2022/11/20 14:15:27;;;;;;;20.27;13.97;;;7.60;99.90;;;;;;10448815;28;20225;-86
2022/11/20 14:20:31;;;;;;;16.67;13.00;;;7.60;99.90;;;;;;10467457;28;20222;-82
2022/11/20 14:25:31;;;;;;;17.90;12.80;;;7.50;99.90;;;;;;10446969;28;20230;-77
2022/11/20 14:30:44;;;;;;;18.70;14.13;;;7.50;99.90;;;;;;10443892;28;20311;-78
2022/11/20 14:35:50;;;;;;;17.70;13.33;;;7.50;99.90;;;;;;10441872;28;20351;-75
2022/11/20 14:40:51;;;;;;;19.53;14.37;;;7.50;99.90;;;;;;10443005;28;20324;-74
2022/11/20 14:46:15;;;;;;;16.70;12.10;;;7.60;99.90;;;;;;10426807;28;20236;-76
2022/11/20 14:51:36;;;;;;;18.83;13.30;;;7.40;99.90;;;;;;10443875;28;20308;-77
2022/11/20 14:56:37;;;;;;;19.10;14.37;;;7.40;99.90;;;;;;10442895;28;20590;-77
2022/11/20 15:01:38;;;;;;;18.10;12.90;;;7.30;99.90;;;;;;10446240;28;20232;-77
2022/11/20 15:06:53;;;;;;;18.03;13.30;;;7.20;99.90;;;;;;10443820;28;20299;-75
2022/11/20 15:12:20;;;;;;;20.43;13.70;;;7.10;99.90;;;;;;10442175;28;20246;-76
2022/11/20 15:17:20;;;;;;;17.13;12.07;;;7.00;99.90;;;;;;10442911;28;20234;-76
2022/11/20 15:22:21;;;;;;;17.33;12.60;;;6.90;99.90;;;;;;10441786;28;20224;-79
2022/11/20 15:27:22;;;;;;;17.87;12.70;;;6.90;99.90;;;;;;10443535;28;20630;-78
2022/11/20 15:32:23;;;;;;;18.60;13.13;;;6.90;99.90;;;;;;10444842;28;20650;-77
2022/11/20 15:37:24;;;;;;;19.80;12.87;;;6.80;99.90;;;;;;10443955;28;20231;-76
2022/11/20 15:42:24;;;;;;;17.00;12.50;;;6.80;99.90;;;;;;10442223;28;20224;-77
2022/11/20 15:47:33;;;;;;;18.80;12.33;;;6.90;99.90;;;;;;10451276;28;20228;-77
2022/11/20 15:52:33;;;;;;;15.60;11.47;;;7.00;99.90;;;;;;10450449;28;20227;-77
2022/11/20 15:57:34;;;;;;;18.43;11.23;;;7.00;99.90;;;;;;10450914;28;20794;-76
2022/11/20 16:02:35;;;;;;;16.30;9.67;;;7.00;99.90;;;;;;10449820;28;20373;-78
2022/11/20 16:07:35;;;;;;;15.87;9.90;;;7.10;99.90;;;;;;10454016;28;20249;-78
2022/11/20 16:17:55;;;;;;;12.43;7.80;;;7.00;99.90;;;;;;10447728;28;20711;-77
2022/11/20 16:22:55;;;;;;;12.77;7.97;;;7.00;99.90;;;;;;10449865;28;20323;-77
2022/11/20 16:27:56;;;;;;;11.90;6.90;;;7.00;99.90;;;;;;10446552;28;20249;-78
2022/11/20 16:32:56;;;;;;;10.60;6.17;;;7.00;99.90;;;;;;10431139;28;20231;-79
2022/11/20 16:37:58;;;;;;;13.40;8.63;;;7.10;99.90;;;;;;10445345;28;20862;-75
2022/11/20 16:43:08;;;;;;;12.53;7.47;;;7.10;99.90;;;;;;10447398;28;20314;-75
2022/11/20 16:48:16;;;;;;;13.50;7.47;;;7.10;99.90;;;;;;10447414;28;20714;-76
2022/11/20 16:53:18;;;;;;;9.63;7.67;;;7.10;99.90;;;;;;10447130;28;20235;-77
2022/11/20 16:58:18;;;;;;;9.27;6.17;;;7.10;99.90;;;;;;10446892;28;20228;-76
2022/11/20 17:03:19;;;;;;;11.50;6.13;;;7.20;99.90;;;;;;10448869;28;20716;-75
2022/11/20 17:08:20;;;;;;;7.97;4.90;;;7.20;99.90;;;;;;10449565;28;20246;-79
2022/11/20 17:13:20;;;;;;;9.73;4.83;;;7.20;99.90;;;;;;10447379;28;20265;-77
2022/11/20 17:18:22;;;;;;;6.47;4.37;;;7.20;99.90;;;;;;10447825;28;20215;-79
2022/11/20 17:23:23;;;;;;;8.97;4.43;;;7.20;99.90;;;;;;10446835;28;20242;-78
2022/11/20 17:28:23;;;;;;;8.03;4.30;;;7.20;99.90;;;;;;10446187;28;20219;-77
2022/11/20 17:33:24;;;;;;;7.70;4.10;;;7.20;99.90;;;;;;10445904;28;20270;-79
2022/11/20 17:38:24;;;;;;;5.70;4.13;;;7.10;99.90;;;;;;10446785;28;20220;-79
2022/11/20 17:43:25;;;;;;;13.97;3.80;;;7.10;99.90;;;;;;10447440;28;20268;-77
2022/11/20 17:48:27;;;;;;;5.90;3.50;;;7.20;99.90;;;;;;10447917;28;20231;-75
2022/11/20 17:53:31;;;;;;;7.77;3.30;;;7.10;99.90;;;;;;10444705;28;20227;-76
2022/11/20 17:58:32;;;;;;;3.80;2.80;;;7.10;99.90;;;;;;10458633;28;20220;-77
2022/11/20 18:03:32;;;;;;;6.83;3.00;;;7.10;99.90;;;;;;10423318;28;20607;-74
2022/11/20 18:08:33;;;;;;;6.10;3.23;;;7.10;99.90;;;;;;10442018;28;20699;-76
2022/11/20 18:14:25;;;;;;;6.07;3.07;;;7.00;99.90;;;;;;10424810;28;20224;-78
2022/11/20 18:18:55;;;;;;;5.00;2.90;;;7.00;99.90;;;;;;10424364;28;20232;-77
2022/11/20 18:23:57;;;;;;;7.40;3.40;;;7.00;99.90;;;;;;10422297;28;20700;-77
2022/11/20 18:28:57;;;;;;;5.63;3.10;;;6.90;99.90;;;;;;10434203;28;20322;-78
2022/11/20 18:33:58;;;;;;;5.90;3.13;;;6.90;99.90;;;;;;10423539;28;20750;-78
2022/11/20 18:39:00;;;;;;;7.73;3.40;;;6.90;99.90;;;;;;10436193;28;20219;-75
2022/11/20 18:49:22;;;;;;;7.67;3.60;;;6.80;99.90;;;;;;10428201;28;20216;-75
2022/11/20 18:54:23;;;;;;;5.47;3.23;;;6.80;99.90;;;;;;10433052;28;20225;-76
2022/11/20 18:59:23;;;;;;;4.10;3.10;;;6.80;99.90;;;;;;10419888;28;20228;-76
2022/11/20 19:04:26;;;;;;;8.97;3.67;;;6.80;99.90;;;;;;10437268;28;20258;-76
2022/11/20 19:09:28;;;;;;;6.63;3.17;;;6.80;99.90;;;;;;10423658;28;20720;-76
2022/11/20 19:14:28;;;;;;;6.77;2.90;;;6.80;99.90;;;;;;10424752;28;20661;-78
2022/11/20 19:19:29;;;;;;;5.47;3.00;;;6.80;99.90;;;;;;10435071;28;20223;-77
2022/11/20 19:24:33;;;;;;;3.83;2.73;;;6.80;99.90;;;;;;10433260;28;20224;-77
2022/11/20 19:29:33;;;;;;;6.13;2.50;;;6.80;99.90;;;;;;10440989;28;20228;-75
2022/11/20 19:34:34;;;;;;;4.73;2.30;;;6.80;99.90;;;;;;10437353;28;20228;-75
2022/11/20 19:39:35;;;;;;;10.10;3.00;;;6.80;99.90;;;;;;10431166;28;20220;-77
2022/11/20 19:44:36;;;;;;;7.20;2.57;;;6.80;99.90;;;;;;10433105;28;20224;-78
2022/11/20 19:49:38;;;;;;;4.77;2.57;;;6.80;99.90;;;;;;10430939;28;20224;-76
2022/11/20 19:54:39;;;;;;;2.83;1.80;;;6.90;99.90;;;;;;10439734;28;20212;-79
2022/11/20 19:59:40;;;;;;;4.33;2.03;;;6.90;99.90;;;;;;10427462;28;20869;-78
2022/11/20 20:04:42;;;;;;;5.27;1.57;;;6.90;99.90;;;;;;10431423;28;20220;-76
2022/11/20 20:09:42;;;;;;;4.27;2.43;;;6.90;99.90;;;;;;10433848;28;20278;-69
2022/11/20 20:14:43;;;;;;;4.03;2.00;;;6.90;99.90;;;;;;10438768;28;20243;-69
2022/11/20 20:19:44;;;;;;;4.93;2.10;;;6.90;99.90;;;;;;10438476;28;20623;-70
2022/11/20 20:24:47;;;;;;;6.03;2.23;;;6.90;99.90;;;;;;10429338;28;20270;-70
2022/11/20 20:29:48;;;;;;;2.83;1.90;;;6.90;99.90;;;;;;10434154;28;20305;-70
2022/11/20 20:34:49;;;;;;;4.67;1.90;;;6.80;99.90;;;;;;10431132;28;20305;-69
2022/11/20 20:39:50;;;;;;;2.53;1.77;;;6.80;99.90;;;;;;10437054;28;20228;-69
2022/11/20 20:45:05;;;;;;;2.43;1.40;;;6.70;99.90;;;;;;10450555;28;20214;-69
2022/11/20 20:50:09;;;;;;;3.80;1.40;;;6.70;99.90;;;;;;10430547;28;20342;-70
2022/11/20 20:55:09;;;;;;;3.13;1.50;;;6.60;99.90;;;;;;10427515;28;20216;-71
2022/11/20 21:00:13;;;;;;;2.60;1.30;;;6.50;99.90;;;;;;10437791;28;20326;-69
2022/11/20 21:05:14;;;;;;;1.93;1.47;;;6.40;99.90;;;;;;10433079;28;20300;-69
2022/11/20 21:10:14;;;;;;;4.40;2.03;;;6.20;99.90;;;;;;10431985;28;20190;-70
2022/11/20 21:15:15;;;;;;;1.50;1.37;;;6.10;99.90;;;;;;10445468;28;20180;-69
2022/11/20 21:21:57;;;;;;;1.50;1.20;;;6.10;99.90;;;;;;10436470;28;20222;-76
2022/11/20 21:25:38;;;;;;;2.70;1.23;;;6.20;99.90;;;;;;10432305;28;20224;-73
2022/11/20 21:30:38;;;;;;;4.10;1.63;;;6.20;99.90;;;;;;10436888;28;20208;-72
2022/11/20 21:35:40;;;;;;;2.93;1.70;;;6.10;99.90;;;;;;10439063;28;20570;-78
2022/11/20 21:40:44;;;;;;;3.33;1.60;;;6.10;99.90;;;;;;10436873;28;20244;-77
2022/11/20 21:45:44;;;;;;;3.23;1.77;;;6.10;99.90;;;;;;10430755;28;20282;-75
2022/11/20 21:50:45;;;;;;;1.63;1.43;;;6.20;99.90;;;;;;10427736;28;20301;-71
2022/11/20 21:55:55;;;;;;;2.17;1.80;;;6.30;99.90;;;;;;10431500;28;20750;-77
2022/11/20 22:00:56;;;;;;;2.27;2.00;;;6.40;99.90;;;;;;10431663;28;20305;-76
2022/11/20 22:05:58;;;;;;;1.73;1.37;;;6.50;99.90;;;;;;10424774;28;20268;-76
2022/11/20 22:11:01;;;;;;;2.50;1.80;;;6.50;99.90;;;;;;10444614;28;20223;-76
2022/11/20 22:16:02;;;;;;;2.93;1.70;;;6.60;99.90;;;;;;10441349;28;20651;-80
2022/11/20 22:21:06;;;;;;;2.70;1.77;;;6.70;99.90;;;;;;10432631;28;20243;-77
2022/11/20 22:26:15;;;;;;;2.13;1.70;;;6.70;99.90;;;;;;10431034;28;20220;-79
2022/11/20 22:31:19;;;;;;;4.80;1.77;;;6.70;99.90;;;;;;10434034;28;20225;-80
2022/11/20 22:36:25;;;;;;;2.47;1.90;;;6.70;99.90;;;;;;10433080;28;20299;-78
2022/11/20 22:41:27;;;;;;;5.27;2.20;;;6.80;99.90;;;;;;10427897;28;20220;-75
2022/11/20 22:46:30;;;;;;;2.90;1.57;;;6.70;99.90;;;;;;10421732;28;20216;-75
2022/11/20 22:51:36;;;;;;;5.83;2.03;;;6.70;99.90;;;;;;10422534;28;20232;-75
2022/11/20 22:56:37;;;;;;;4.63;2.10;;;6.70;99.90;;;;;;10439799;28;20676;-79
2022/11/20 23:01:37;;;;;;;3.67;2.03;;;6.70;99.90;;;;;;10443055;28;20223;-75
2022/11/20 23:06:38;;;;;;;3.73;2.00;;;6.60;99.90;;;;;;10426866;28;20316;-77
2022/11/20 23:11:41;;;;;;;4.00;2.10;;;6.60;99.90;;;;;;10443157;28;20233;-77
2022/11/20 23:16:41;;;;;;;3.07;1.83;;;6.60;99.90;;;;;;10438755;28;20220;-77
2022/11/20 23:21:42;;;;;;;4.10;2.30;;;6.60;99.90;;;;;;10422777;28;20235;-77
2022/11/20 23:26:46;;;;;;;6.30;2.47;;;6.60;99.90;;;;;;10426742;28;20224;-78
2022/11/20 23:31:47;;;;;;;4.50;2.40;;;6.50;99.90;;;;;;10434959;28;20220;-78
2022/11/20 23:36:48;;;;;;;3.70;2.27;;;6.50;99.90;;;;;;10430802;28;20227;-76
2022/11/20 23:41:48;;;;;;;4.57;2.73;;;6.50;99.90;;;;;;10429773;28;20269;-76
2022/11/20 23:46:49;;;;;;;6.50;2.70;;;6.60;99.90;;;;;;10432588;28;20228;-79
2022/11/20 23:51:50;;;;;;;4.53;2.60;;;6.70;99.90;;;;;;10427986;28;20336;-80
2022/11/20 23:56:50;;;;;;;4.40;2.20;;;6.70;99.90;;;;;;10427770;28;20254;-80
